createdAt,value
2019-02-18T00:00:47.805Z,98.42
2019-02-18T00:03:17.270Z,85.83
2019-02-18T00:05:46.979Z,94.03
2019-02-18T00:08:16.781Z,98.92
2019-02-18T00:10:46.507Z,90.75
2019-02-18T00:13:16.217Z,97.25
2019-02-18T00:15:45.598Z,100.72
2019-02-18T00:18:14.928Z,92.72
2019-02-18T00:20:44.247Z,93.90
2019-02-18T00:23:13.638Z,101.50
2019-02-18T00:25:42.958Z,90.35
2019-02-18T00:28:12.279Z,90.77
2019-02-18T00:30:42.048Z,90.67
2019-02-18T00:33:11.440Z,97.35
2019-02-18T00:35:40.839Z,86.45
2019-02-18T00:38:10.208Z,82.53
2019-02-18T00:40:39.587Z,86.75
2019-02-18T00:43:08.904Z,79.58
2019-02-18T00:45:38.597Z,87.08
2019-02-18T00:48:07.922Z,82.33
2019-02-18T00:50:37.322Z,85.55
2019-02-18T00:53:07.069Z,84.80
2019-02-18T00:55:36.387Z,85.42
2019-02-18T00:58:05.782Z,84.50
2019-02-18T01:00:35.489Z,84.60
2019-02-18T01:03:04.962Z,85.32
2019-02-18T01:05:34.317Z,83.62
2019-02-18T01:08:04.111Z,90.47
2019-02-18T01:10:33.919Z,96.72
2019-02-18T01:13:03.335Z,84.35
2019-02-18T01:15:33.034Z,81.00
2019-02-18T01:18:02.366Z,85.22
2019-02-18T01:20:32.136Z,89.37
2019-02-18T01:23:02.875Z,82.27
2019-02-18T01:25:32.807Z,79.27
2019-02-18T01:28:02.131Z,77.62
2019-02-18T01:30:31.629Z,85.05
2019-02-18T01:33:01.332Z,90.15
2019-02-18T01:35:30.710Z,81.53
2019-02-18T01:38:00.162Z,85.15
2019-02-18T01:40:30.017Z,87.80
2019-02-18T01:42:59.406Z,81.00
2019-02-18T01:45:29.133Z,79.65
2019-02-18T01:47:58.765Z,85.47
2019-02-18T01:50:28.169Z,80.95
2019-02-18T01:52:57.957Z,84.37
2019-02-18T01:55:27.663Z,80.03
2019-02-18T01:57:57.077Z,85.10
2019-02-18T02:00:26.788Z,83.45
2019-02-18T02:02:56.184Z,74.20
2019-02-18T02:05:25.888Z,69.80
2019-02-18T02:07:56.529Z,75.28
2019-02-18T02:10:26.179Z,65.47
2019-02-18T02:13:15.422Z,70.65
2019-02-18T02:15:44.753Z,66.28
2019-02-18T02:18:14.072Z,65.70
2019-02-18T02:20:43.571Z,70.78
2019-02-18T02:23:13.325Z,62.98
2019-02-18T02:25:42.635Z,62.88
2019-02-18T02:28:12.433Z,58.60
2019-02-18T02:30:41.779Z,59.77
2019-02-18T02:33:11.105Z,64.70
2019-02-18T02:35:40.934Z,66.37
2019-02-18T02:38:10.281Z,55.70
2019-02-18T02:40:39.735Z,58.13
2019-02-18T02:43:09.126Z,59.08
2019-02-18T02:45:38.865Z,64.00
2019-02-18T02:48:08.565Z,69.12
2019-02-18T02:50:37.994Z,76.33
2019-02-18T02:53:07.334Z,65.32
2019-02-18T02:55:37.003Z,71.95
2019-02-18T02:58:06.455Z,72.15
2019-02-18T03:00:35.921Z,81.22
2019-02-18T03:03:05.233Z,74.55
2019-02-18T03:05:34.953Z,82.10
2019-02-18T03:08:04.269Z,77.95
2019-02-18T03:10:33.659Z,78.28
2019-02-18T03:13:03.113Z,77.03
2019-02-18T03:15:32.580Z,72.12
2019-02-18T03:18:01.971Z,76.72
2019-02-18T03:20:31.427Z,73.47
2019-02-18T03:23:00.830Z,80.90
2019-02-18T03:25:31.541Z,78.80
2019-02-18T03:28:06.844Z,74.97
2019-02-18T03:30:45.186Z,72.37
2019-02-18T03:33:26.549Z,73.97
2019-02-18T03:35:55.886Z,72.67
2019-02-18T03:38:31.526Z,84.90
2019-02-18T03:41:03.268Z,75.10
2019-02-18T03:43:28.350Z,71.75
2019-02-18T03:45:57.683Z,73.62
2019-02-18T03:48:27.047Z,79.10
2019-02-18T03:50:56.375Z,76.07
2019-02-18T03:53:25.776Z,68.25
2019-02-18T03:55:55.141Z,69.60
2019-02-18T03:58:24.537Z,76.75
2019-02-18T04:00:53.931Z,75.70
2019-02-18T04:03:23.631Z,70.03
2019-02-18T04:05:52.946Z,69.55
2019-02-18T04:08:22.745Z,70.25
2019-02-18T04:10:52.271Z,64.17
2019-02-18T04:13:21.673Z,69.47
2019-02-18T04:15:51.067Z,68.95
2019-02-18T04:18:20.509Z,70.55
2019-02-18T04:20:50.133Z,68.37
2019-02-18T04:23:19.785Z,70.75
2019-02-18T04:25:49.482Z,74.15
2019-02-18T04:28:18.892Z,63.25
2019-02-18T04:30:48.215Z,69.30
2019-02-18T04:33:17.643Z,68.07
2019-02-18T04:35:47.399Z,72.45
2019-02-18T04:38:17.213Z,72.80
2019-02-18T04:40:46.635Z,65.25
2019-02-18T04:43:15.954Z,70.57
2019-02-18T04:45:45.634Z,73.30
2019-02-18T04:48:16.212Z,71.92
2019-02-18T04:50:45.522Z,61.85
2019-02-18T04:53:14.866Z,56.65
2019-02-18T04:55:44.239Z,56.28
2019-02-18T04:58:13.770Z,53.13
2019-02-18T05:00:43.085Z,49.85
2019-02-18T05:03:12.667Z,58.20
2019-02-18T05:05:41.990Z,55.33
2019-02-18T05:08:11.711Z,55.38
2019-02-18T05:10:41.118Z,63.78
2019-02-18T05:13:10.535Z,65.08
2019-02-18T05:15:40.509Z,67.72
2019-02-18T05:18:10.165Z,59.33
2019-02-18T05:20:39.627Z,65.10
2019-02-18T05:23:08.954Z,66.25
2019-02-18T05:25:38.424Z,63.28
2019-02-18T05:28:08.237Z,66.20
2019-02-18T05:30:37.947Z,60.45
2019-02-18T05:33:07.537Z,74.10
2019-02-18T05:35:36.864Z,72.40
2019-02-18T05:38:06.259Z,70.62
2019-02-18T05:40:35.840Z,62.60
2019-02-18T05:43:05.229Z,69.15
2019-02-18T05:45:35.663Z,66.80
2019-02-18T05:48:05.013Z,69.55
2019-02-18T05:50:34.425Z,65.50
2019-02-18T05:53:03.842Z,68.42
2019-02-18T05:55:33.283Z,69.90
2019-02-18T05:58:02.686Z,64.40
2019-02-18T06:00:32.074Z,60.20
2019-02-18T06:03:01.436Z,58.83
2019-02-18T06:05:30.749Z,56.50
2019-02-18T06:08:00.154Z,60.50
2019-02-18T06:10:29.702Z,58.80
2019-02-18T06:13:00.355Z,60.38
2019-02-18T06:15:29.689Z,60.90
2019-02-18T06:17:59.086Z,54.88
2019-02-18T06:20:28.487Z,57.75
2019-02-18T06:22:58.157Z,48.80
2019-02-18T06:25:27.507Z,59.10
2019-02-18T06:27:57.274Z,61.40
2019-02-18T06:30:26.746Z,72.10
2019-02-18T06:32:56.500Z,65.62
2019-02-18T06:35:26.333Z,69.20
2019-02-18T06:37:55.732Z,67.03
2019-02-18T06:40:25.425Z,74.53
2019-02-18T06:42:54.743Z,77.42
2019-02-18T06:45:32.220Z,78.50
2019-02-18T06:48:03.300Z,76.75
2019-02-18T06:50:33.074Z,86.63
2019-02-18T06:53:02.517Z,67.85
2019-02-18T06:55:31.918Z,78.95
2019-02-18T06:58:02.945Z,79.07
2019-02-18T07:00:42.854Z,75.08
2019-02-18T07:03:19.454Z,75.47
2019-02-18T07:06:02.872Z,76.20
2019-02-18T07:08:43.067Z,80.47
2019-02-18T07:11:14.141Z,76.67
2019-02-18T07:13:43.979Z,65.30
2019-02-18T07:16:13.801Z,67.70
2019-02-18T07:18:44.255Z,76.10
2019-02-18T07:21:13.566Z,63.65
2019-02-18T07:23:42.956Z,71.37
2019-02-18T07:26:12.375Z,67.62
2019-02-18T07:28:41.680Z,63.75
2019-02-18T07:31:10.993Z,65.47
2019-02-18T07:33:40.748Z,60.80
2019-02-18T07:36:10.046Z,66.75
2019-02-18T07:38:39.384Z,66.95
2019-02-18T07:41:09.150Z,70.67
2019-02-18T07:43:38.571Z,61.18
2019-02-18T07:46:08.264Z,66.50
2019-02-18T07:48:37.629Z,66.22
2019-02-18T07:51:07.145Z,59.67
2019-02-18T07:53:36.471Z,63.38
2019-02-18T07:56:05.860Z,66.33
2019-02-18T07:58:35.257Z,68.42
2019-02-18T08:01:05.098Z,69.07
2019-02-18T08:03:34.445Z,66.60
2019-02-18T08:06:03.835Z,72.00
2019-02-18T08:08:33.155Z,68.67
2019-02-18T08:11:02.816Z,65.95
2019-02-18T08:13:32.215Z,64.40
2019-02-18T08:16:01.613Z,66.28
2019-02-18T08:18:31.430Z,64.27
2019-02-18T08:21:01.134Z,73.12
2019-02-18T08:23:30.480Z,76.15
2019-02-18T08:26:00.258Z,71.25
2019-02-18T08:28:30.985Z,73.52
2019-02-18T08:31:00.686Z,67.05
2019-02-18T08:33:30.509Z,64.90
2019-02-18T08:36:00.186Z,70.40
2019-02-18T08:38:29.827Z,68.92
2019-02-18T08:40:59.198Z,83.12
2019-02-18T08:43:28.931Z,80.30
2019-02-18T08:45:58.647Z,81.32
2019-02-18T08:48:28.033Z,70.60
2019-02-18T08:50:57.350Z,66.15
2019-02-18T08:53:26.759Z,65.32
2019-02-18T08:55:56.129Z,60.00
2019-02-18T08:58:25.447Z,71.15
2019-02-18T09:01:02.247Z,62.95
2019-02-18T09:03:25.866Z,64.62
2019-02-18T09:05:55.259Z,65.92
2019-02-18T09:08:24.597Z,61.13
2019-02-18T09:10:54.054Z,59.65
2019-02-18T09:13:23.411Z,63.42
2019-02-18T09:15:59.822Z,61.15
2019-02-18T09:18:23.936Z,61.95
2019-02-18T09:20:53.394Z,65.10
2019-02-18T09:23:36.790Z,76.95
2019-02-18T09:26:06.200Z,68.83
2019-02-18T09:28:35.911Z,71.50
2019-02-18T09:31:05.458Z,65.80
2019-02-18T09:33:35.230Z,70.25
2019-02-18T09:36:04.623Z,71.22
2019-02-18T09:38:34.001Z,74.53
2019-02-18T09:41:03.313Z,66.67
2019-02-18T09:43:33.031Z,72.70
2019-02-18T09:46:02.490Z,67.08
2019-02-18T09:48:31.866Z,76.02
2019-02-18T09:51:01.341Z,69.77
2019-02-18T09:53:30.715Z,65.80
2019-02-18T09:56:00.585Z,74.82
2019-02-18T09:58:30.085Z,72.53
2019-02-18T10:00:59.485Z,69.00
2019-02-18T10:03:32.162Z,70.47
2019-02-18T10:05:59.907Z,76.05
2019-02-18T10:08:29.405Z,87.72
2019-02-18T10:10:58.785Z,70.57
2019-02-18T10:13:28.188Z,68.95
2019-02-18T10:15:57.607Z,72.75
2019-02-18T10:18:27.993Z,76.70
2019-02-18T10:20:57.413Z,78.80
2019-02-18T10:23:26.783Z,81.17
2019-02-18T10:25:57.183Z,80.22
2019-02-18T10:28:26.572Z,79.42
2019-02-18T10:30:55.925Z,76.55
2019-02-18T10:33:25.590Z,79.32
2019-02-18T10:35:55.311Z,80.45
2019-02-18T10:38:24.707Z,80.95
2019-02-18T10:40:54.044Z,78.70
2019-02-18T10:43:32.232Z,78.45
2019-02-18T10:45:55.889Z,84.95
2019-02-18T10:48:25.532Z,80.87
2019-02-18T10:50:55.003Z,81.95
2019-02-18T10:53:24.374Z,78.95
2019-02-18T10:55:53.783Z,86.08
2019-02-18T10:58:23.533Z,86.87
2019-02-18T11:00:53.085Z,91.53
2019-02-18T11:03:23.003Z,91.53
2019-02-18T11:05:52.414Z,103.05
2019-02-18T11:08:22.054Z,98.03
2019-02-18T11:10:51.403Z,97.57
2019-02-18T11:13:20.713Z,99.07
2019-02-18T11:15:50.121Z,92.97
2019-02-18T11:18:19.443Z,92.92
2019-02-18T11:20:48.783Z,96.70
2019-02-18T11:23:18.677Z,101.07
2019-02-18T11:25:48.295Z,100.80
2019-02-18T11:28:17.622Z,106.52
2019-02-18T11:30:47.076Z,101.22
2019-02-18T11:33:16.396Z,105.55
2019-02-18T11:35:46.196Z,103.58
2019-02-18T11:38:15.635Z,102.67
2019-02-18T11:40:45.314Z,105.67
2019-02-18T11:43:14.656Z,103.42
2019-02-18T11:45:44.029Z,103.35
2019-02-18T11:48:13.437Z,106.03
2019-02-18T11:50:43.124Z,114.32
2019-02-18T11:53:13.143Z,108.65
2019-02-18T11:55:42.474Z,109.78
2019-02-18T11:58:11.803Z,107.83
2019-02-18T12:00:41.248Z,110.45
2019-02-18T12:03:12.705Z,103.22
2019-02-18T12:05:41.600Z,105.50
2019-02-18T12:08:11.314Z,106.27
2019-02-18T12:10:40.708Z,105.07
2019-02-18T12:13:10.409Z,109.25
2019-02-18T12:15:39.790Z,101.50
2019-02-18T12:18:09.251Z,106.50
2019-02-18T12:20:39.043Z,102.15
2019-02-18T12:23:08.730Z,110.08
2019-02-18T12:25:38.057Z,102.60
2019-02-18T12:28:07.859Z,96.72
2019-02-18T12:30:37.684Z,107.47
2019-02-18T12:33:07.147Z,102.78
2019-02-18T12:35:36.537Z,98.55
2019-02-18T12:38:06.074Z,96.67
2019-02-18T12:40:35.414Z,100.90
2019-02-18T12:43:05.877Z,99.95
2019-02-18T12:45:35.220Z,107.92
2019-02-18T12:48:04.922Z,101.18
2019-02-18T12:50:35.041Z,93.17
2019-02-18T12:53:04.767Z,86.65
2019-02-18T12:55:34.367Z,90.92
2019-02-18T12:58:03.949Z,88.50
2019-02-18T13:00:33.331Z,98.30
2019-02-18T13:03:02.834Z,88.35
2019-02-18T13:05:32.218Z,91.08
2019-02-18T13:08:02.809Z,91.90
2019-02-18T13:10:34.875Z,82.67
2019-02-18T13:13:03.921Z,78.80
2019-02-18T13:15:33.296Z,82.47
2019-02-18T13:20:32.366Z,71.37
2019-02-18T13:23:02.443Z,72.15
2019-02-18T13:25:32.511Z,72.50
2019-02-18T13:28:08.296Z,75.90
2019-02-18T13:30:33.272Z,73.22
2019-02-18T13:33:02.726Z,70.05
2019-02-18T13:35:32.196Z,63.23
2019-02-18T13:38:01.573Z,65.87
2019-02-18T13:40:31.082Z,57.75
2019-02-18T13:43:00.398Z,59.18
2019-02-18T13:45:29.803Z,53.38
2019-02-18T13:47:59.116Z,56.92
2019-02-18T13:50:28.497Z,55.25
2019-02-18T13:52:57.884Z,50.52
2019-02-18T13:55:27.307Z,49.55
2019-02-18T13:57:56.713Z,63.10
2019-02-18T14:00:26.147Z,64.42
2019-02-18T14:02:55.822Z,56.65
2019-02-18T14:05:25.138Z,51.85
2019-02-18T14:07:54.583Z,45.33
2019-02-18T14:10:23.995Z,56.40
2019-02-18T14:12:53.437Z,44.77
2019-02-18T14:15:22.829Z,47.93
2019-02-18T14:17:52.470Z,48.00
2019-02-18T14:20:21.858Z,47.73
2019-02-18T14:22:51.217Z,46.80
2019-02-18T14:25:21.176Z,43.63
2019-02-18T14:27:50.509Z,45.25
2019-02-18T14:30:19.942Z,44.88
2019-02-18T14:32:49.366Z,50.25
2019-02-18T14:35:18.667Z,48.33
2019-02-18T14:37:48.584Z,44.53
2019-02-18T14:40:19.602Z,53.17
2019-02-18T14:42:49.009Z,56.20
2019-02-18T14:45:18.933Z,54.65
2019-02-18T14:47:48.318Z,52.53
2019-02-18T14:50:18.967Z,61.23
2019-02-18T14:52:48.584Z,59.53
2019-02-18T14:55:18.004Z,58.00
2019-02-18T14:57:47.784Z,55.30
2019-02-18T15:00:21.576Z,55.10
2019-02-18T15:02:52.773Z,53.65
2019-02-18T15:05:22.111Z,55.08
2019-02-18T15:07:51.427Z,59.73
2019-02-18T15:10:20.782Z,64.77
2019-02-18T15:12:51.269Z,60.60
2019-02-18T15:15:21.812Z,56.90
2019-02-18T15:17:51.287Z,60.65
2019-02-18T15:20:21.183Z,58.80
2019-02-18T15:22:50.626Z,57.25
2019-02-18T15:25:20.013Z,53.75
2019-02-18T15:27:49.730Z,51.85
2019-02-18T15:30:19.159Z,57.23
2019-02-18T15:32:48.862Z,55.17
2019-02-18T15:35:18.459Z,53.28
2019-02-18T15:37:47.877Z,47.38
2019-02-18T15:40:17.996Z,50.50
2019-02-18T15:42:47.832Z,57.85
2019-02-18T15:45:17.603Z,46.77
2019-02-18T15:47:47.272Z,51.55
2019-02-18T15:50:16.672Z,47.60
2019-02-18T15:52:46.136Z,50.90
2019-02-18T15:55:15.530Z,47.98
2019-02-18T15:57:45.004Z,49.27
2019-02-18T16:00:17.637Z,57.17
2019-02-18T16:02:47.428Z,55.05
2019-02-18T16:05:16.889Z,51.37
2019-02-18T16:07:46.403Z,51.37
2019-02-18T16:10:15.725Z,47.05
2019-02-18T16:12:50.765Z,45.70
2019-02-18T16:15:16.283Z,62.00
2019-02-18T16:17:45.903Z,49.70
2019-02-18T16:20:15.301Z,52.78
2019-02-18T16:22:44.725Z,51.98
2019-02-18T16:25:22.623Z,50.50
2019-02-18T16:27:52.102Z,54.50
2019-02-18T16:30:22.201Z,63.13
2019-02-18T16:32:52.005Z,52.17
2019-02-18T16:35:21.826Z,51.55
2019-02-18T16:37:51.156Z,55.00
2019-02-18T16:40:20.531Z,53.52
2019-02-18T16:42:58.902Z,51.42
2019-02-18T16:45:21.398Z,59.85
2019-02-18T16:47:50.762Z,56.70
2019-02-18T16:50:20.095Z,51.80
2019-02-18T16:52:49.423Z,63.05
2019-02-18T16:55:18.743Z,55.23
2019-02-18T16:57:48.223Z,59.20
2019-02-18T17:00:29.382Z,73.92
2019-02-18T17:02:58.768Z,56.35
2019-02-18T17:05:28.148Z,55.12
2019-02-18T17:07:57.904Z,58.48
2019-02-18T17:10:27.675Z,53.42
2019-02-18T17:12:57.077Z,59.48
2019-02-18T17:15:26.466Z,52.70
2019-02-18T17:17:55.916Z,50.48
2019-02-18T17:20:25.244Z,49.63
2019-02-18T17:22:54.622Z,57.45
2019-02-18T17:25:24.434Z,46.88
2019-02-18T17:27:53.840Z,51.95
2019-02-18T17:30:23.543Z,57.15
2019-02-18T17:32:52.922Z,57.65
2019-02-18T17:35:23.384Z,56.40
2019-02-18T17:37:52.815Z,57.27
2019-02-18T17:40:22.280Z,64.22
2019-02-18T17:42:51.677Z,59.80
2019-02-18T17:45:21.296Z,59.05
2019-02-18T17:47:50.745Z,52.88
2019-02-18T17:50:20.069Z,55.58
2019-02-18T17:52:49.468Z,59.88
2019-02-18T17:55:19.594Z,53.15
2019-02-18T17:57:49.890Z,58.65
2019-02-18T18:00:34.689Z,55.98
2019-02-18T18:03:04.158Z,52.83
2019-02-18T18:05:34.636Z,57.65
2019-02-18T18:08:04.839Z,61.50
2019-02-18T18:10:34.157Z,60.45
2019-02-18T18:13:03.985Z,63.68
2019-02-18T18:15:33.341Z,57.25
2019-02-18T18:18:03.003Z,56.53
2019-02-18T18:20:32.324Z,56.75
2019-02-18T18:23:02.109Z,61.25
2019-02-18T18:25:31.415Z,60.38
2019-02-18T18:28:00.725Z,56.85
2019-02-18T18:30:30.411Z,58.55
2019-02-18T18:32:59.749Z,63.33
2019-02-18T18:35:29.070Z,55.60
2019-02-18T18:37:58.876Z,72.82
2019-02-18T18:40:28.699Z,71.22
2019-02-18T18:42:58.013Z,58.05
2019-02-18T18:45:27.799Z,63.68
2019-02-18T18:47:57.517Z,57.00
2019-02-18T18:50:27.537Z,55.98
2019-02-18T18:52:56.907Z,55.38
2019-02-18T18:55:26.310Z,51.58
2019-02-18T18:57:55.658Z,55.80
2019-02-18T19:00:26.570Z,59.88
2019-02-18T19:02:55.964Z,58.75
2019-02-18T19:05:25.369Z,58.48
2019-02-18T19:07:54.792Z,63.25
2019-02-18T19:10:24.498Z,59.75
2019-02-18T19:12:53.895Z,66.92
2019-02-18T19:15:23.332Z,60.03
2019-02-18T19:17:52.653Z,51.55
2019-02-18T19:20:22.531Z,59.53
2019-02-18T19:22:52.433Z,51.02
2019-02-18T19:25:22.153Z,62.73
2019-02-18T19:27:51.692Z,60.10
2019-02-18T19:30:33.936Z,58.70
2019-02-18T19:33:03.347Z,52.05
2019-02-18T19:35:33.040Z,55.95
2019-02-18T19:38:02.668Z,57.30
2019-02-18T19:40:31.985Z,54.75
2019-02-18T19:43:01.394Z,60.28
2019-02-18T19:45:30.871Z,55.28
2019-02-18T19:48:00.275Z,62.45
2019-02-18T19:50:30.165Z,62.38
2019-02-18T19:52:59.898Z,68.90
2019-02-18T19:55:29.301Z,56.37
2019-02-18T19:57:59.379Z,55.83
2019-02-18T20:00:28.720Z,64.12
2019-02-18T20:02:58.451Z,60.45
2019-02-18T20:05:27.916Z,63.68
2019-02-18T20:07:57.952Z,58.95
2019-02-18T20:10:27.678Z,63.25
2019-02-18T20:12:57.001Z,65.45
2019-02-18T20:15:27.905Z,66.35
2019-02-18T20:17:57.243Z,64.58
2019-02-18T20:20:26.771Z,61.85
2019-02-18T20:22:56.279Z,65.95
2019-02-18T20:25:25.608Z,65.72
2019-02-18T20:27:55.320Z,63.83
2019-02-18T20:30:25.139Z,67.50
2019-02-18T20:32:54.527Z,62.08
2019-02-18T20:35:23.911Z,65.97
2019-02-18T20:37:53.667Z,69.12
2019-02-18T20:40:23.368Z,66.65
2019-02-18T20:42:52.696Z,63.15
2019-02-18T20:45:22.494Z,63.45
2019-02-18T20:47:51.821Z,56.92
2019-02-18T20:50:21.211Z,70.95
2019-02-18T20:52:50.997Z,67.72
2019-02-18T20:55:20.921Z,60.80
2019-02-18T20:57:50.618Z,60.33
2019-02-18T21:00:21.170Z,59.40
2019-02-18T21:02:50.962Z,60.17
2019-02-18T21:05:20.677Z,69.80
2019-02-18T21:07:50.220Z,66.77
2019-02-18T21:10:20.683Z,62.27
2019-02-18T21:12:50.970Z,71.95
2019-02-18T21:15:20.673Z,63.68
2019-02-18T21:17:50.354Z,60.80
2019-02-18T21:20:19.756Z,60.67
2019-02-18T21:22:49.512Z,63.28
2019-02-18T21:25:18.896Z,59.83
2019-02-18T21:27:48.684Z,63.23
2019-02-18T21:30:18.442Z,66.20
2019-02-18T21:32:47.917Z,65.28
2019-02-18T21:35:17.251Z,64.85
2019-02-18T21:37:47.396Z,64.97
2019-02-18T21:40:16.936Z,63.52
2019-02-18T21:42:46.333Z,61.35
2019-02-18T21:45:15.966Z,69.00
2019-02-18T21:47:45.756Z,67.60
2019-02-18T21:50:15.144Z,59.45
2019-02-18T21:52:44.694Z,68.40
2019-02-18T21:55:14.082Z,72.15
2019-02-18T21:57:44.491Z,70.60
2019-02-18T22:00:23.516Z,64.85
2019-02-18T22:02:52.970Z,68.72
2019-02-18T22:05:22.457Z,65.60
2019-02-18T22:07:51.884Z,67.15
2019-02-18T22:10:21.319Z,69.82
2019-02-18T22:12:50.709Z,68.25
2019-02-18T22:15:20.129Z,62.65
2019-02-18T22:17:49.868Z,64.30
2019-02-18T22:20:20.834Z,63.92
2019-02-18T22:22:50.415Z,70.35
2019-02-18T22:25:19.891Z,61.60
2019-02-18T22:27:50.303Z,67.62
2019-02-18T22:30:19.723Z,63.20
2019-02-18T22:32:49.055Z,64.80
2019-02-18T22:35:18.734Z,69.58
2019-02-18T22:37:48.188Z,68.17
2019-02-18T22:40:17.525Z,67.60
2019-02-18T22:42:47.144Z,63.52
2019-02-18T22:45:16.516Z,73.75
2019-02-18T22:47:45.993Z,57.95
2019-02-18T22:50:15.820Z,62.27
2019-02-18T22:52:45.675Z,56.68
2019-02-18T22:55:15.148Z,55.33
2019-02-18T22:57:44.582Z,61.90
2019-02-18T23:00:39.393Z,62.73
2019-02-18T23:03:09.206Z,64.77
2019-02-18T23:05:38.522Z,60.00
2019-02-18T23:08:07.858Z,63.85
2019-02-18T23:10:37.289Z,60.17
2019-02-18T23:13:07.028Z,63.83
2019-02-18T23:15:36.822Z,64.80
2019-02-18T23:18:06.269Z,63.48
2019-02-18T23:20:35.592Z,56.45
2019-02-18T23:23:05.080Z,57.25
2019-02-18T23:25:34.788Z,54.27
2019-02-18T23:28:04.256Z,63.92
2019-02-18T23:30:33.962Z,63.00
2019-02-18T23:33:03.442Z,57.62
2019-02-18T23:35:32.773Z,56.63
2019-02-18T23:38:02.185Z,57.95
2019-02-18T23:40:31.690Z,57.95
2019-02-18T23:43:01.010Z,59.75
2019-02-18T23:45:30.452Z,54.83
2019-02-18T23:48:00.300Z,58.08
2019-02-18T23:50:29.783Z,64.10
2019-02-18T23:52:59.510Z,60.17
2019-02-18T23:55:29.197Z,61.08
2019-02-18T23:57:58.682Z,59.58
